createdAt,value
2019-05-30T00:03:58.854Z,18.50
2019-05-30T00:09:04.613Z,18.50
2019-05-30T00:14:08.918Z,18.50
2019-05-30T00:19:13.230Z,18.50
2019-05-30T00:24:17.535Z,18.50
2019-05-30T00:29:21.848Z,18.50
2019-05-30T00:34:26.150Z,18.50
2019-05-30T00:39:30.453Z,18.50
2019-05-30T00:44:34.770Z,18.50
2019-05-30T00:49:39.088Z,18.50
2019-05-30T00:54:43.382Z,18.60
2019-05-30T00:59:47.700Z,18.60
2019-05-30T01:04:51.991Z,18.60
2019-05-30T01:09:56.819Z,18.60
2019-05-30T01:15:01.241Z,18.60
2019-05-30T01:20:08.850Z,18.60
2019-05-30T01:25:14.950Z,18.60
2019-05-30T01:30:19.496Z,18.60
2019-05-30T01:35:23.802Z,18.60
2019-05-30T01:40:28.103Z,18.60
2019-05-30T01:45:32.413Z,18.60
2019-05-30T01:50:36.719Z,18.50
2019-05-30T01:55:41.017Z,18.50
2019-05-30T02:00:45.333Z,18.50
2019-05-30T02:05:49.627Z,18.50
2019-05-30T02:10:53.931Z,18.50
2019-05-30T02:15:59.474Z,18.50
2019-05-30T02:21:03.912Z,18.50
2019-05-30T02:26:08.323Z,18.40
2019-05-30T02:31:12.696Z,18.40
2019-05-30T02:36:16.996Z,18.40
2019-05-30T02:41:21.292Z,18.40
2019-05-30T02:46:25.588Z,18.40
2019-05-30T02:51:29.895Z,18.40
2019-05-30T02:56:34.196Z,18.30
2019-05-30T03:01:58.393Z,18.30
2019-05-30T03:06:45.025Z,18.30
2019-05-30T03:11:49.563Z,18.30
2019-05-30T03:16:53.864Z,18.30
2019-05-30T03:21:58.162Z,18.30
2019-05-30T03:27:02.691Z,18.30
2019-05-30T03:32:49.066Z,18.30
2019-05-30T03:37:27.439Z,18.30
2019-05-30T03:42:20.022Z,18.20
2019-05-30T03:47:27.095Z,18.20
2019-05-30T03:52:32.634Z,18.20
2019-05-30T03:57:44.346Z,18.20
2019-05-30T04:02:58.997Z,18.20
2019-05-30T04:08:06.649Z,18.20
2019-05-30T04:13:24.259Z,18.20
2019-05-30T04:18:28.540Z,18.20
2019-05-30T04:23:32.843Z,18.20
2019-05-30T04:28:37.213Z,18.10
2019-05-30T04:33:41.519Z,18.20
2019-05-30T04:38:45.815Z,18.10
2019-05-30T04:43:50.119Z,18.10
2019-05-30T04:48:54.415Z,18.10
2019-05-30T04:53:58.719Z,18.10
2019-05-30T04:59:03.019Z,18.20
2019-05-30T05:04:07.315Z,18.10
2019-05-30T05:09:12.028Z,18.10
2019-05-30T05:14:16.499Z,18.10
2019-05-30T05:19:22.435Z,18.10
2019-05-30T05:24:26.817Z,18.10
2019-05-30T05:29:31.124Z,18.10
2019-05-30T05:34:35.428Z,18.10
2019-05-30T05:39:39.736Z,18.10
2019-05-30T05:44:44.046Z,18.10
2019-05-30T05:49:48.357Z,18.20
2019-05-30T05:54:52.661Z,18.30
2019-05-30T05:59:56.967Z,18.30
2019-05-30T06:05:01.277Z,18.40
2019-05-30T06:10:07.099Z,18.50
2019-05-30T06:15:11.576Z,18.50
2019-05-30T06:20:17.460Z,18.60
2019-05-30T06:25:24.452Z,18.60
2019-05-30T06:30:28.793Z,18.60
2019-05-30T06:35:33.291Z,18.60
2019-05-30T06:40:37.631Z,18.60
2019-05-30T06:45:41.930Z,18.60
2019-05-30T06:50:46.226Z,18.60
2019-05-30T06:55:50.541Z,18.60
2019-05-30T07:00:54.831Z,18.60
2019-05-30T07:05:59.599Z,18.60
2019-05-30T07:11:04.323Z,18.60
2019-05-30T07:16:08.620Z,18.60
2019-05-30T07:21:12.942Z,18.50
2019-05-30T07:26:17.255Z,18.50
2019-05-30T07:31:21.558Z,18.50
2019-05-30T07:36:26.171Z,18.50
2019-05-30T07:41:30.682Z,18.50
2019-05-30T07:46:35.163Z,18.50
2019-05-30T07:51:39.587Z,18.50
2019-05-30T07:56:43.914Z,18.50
2019-05-30T08:01:48.235Z,18.50
2019-05-30T08:06:52.536Z,18.40
2019-05-30T08:11:56.853Z,18.40
2019-05-30T08:17:01.233Z,18.40
2019-05-30T08:22:05.670Z,18.40
2019-05-30T08:27:10.046Z,18.40
2019-05-30T08:32:14.433Z,18.40
2019-05-30T08:37:20.273Z,18.30
2019-05-30T08:42:27.762Z,18.30
2019-05-30T08:47:32.221Z,18.30
2019-05-30T08:52:38.678Z,18.30
2019-05-30T08:57:44.666Z,18.30
2019-05-30T09:02:49.047Z,18.30
2019-05-30T09:07:53.502Z,18.30
2019-05-30T09:12:57.872Z,18.30
2019-05-30T09:18:02.246Z,18.40
2019-05-30T09:23:06.721Z,18.40
2019-05-30T09:28:11.095Z,18.50
2019-05-30T09:33:15.413Z,18.50
2019-05-30T09:38:19.780Z,18.50
2019-05-30T09:43:24.090Z,18.50
2019-05-30T09:48:28.401Z,18.50
2019-05-30T09:53:32.766Z,18.50
2019-05-30T09:58:37.246Z,18.50
2019-05-30T10:03:43.075Z,18.50
2019-05-30T10:08:49.534Z,18.50
2019-05-30T10:13:54.164Z,18.50
2019-05-30T10:18:58.548Z,18.50
2019-05-30T10:24:02.890Z,18.90
2019-05-30T10:29:07.353Z,19.20
2019-05-30T10:34:11.839Z,19.50
2019-05-30T10:39:17.690Z,19.50
2019-05-30T10:44:21.993Z,19.60
2019-05-30T10:49:34.837Z,19.70
2019-05-30T10:54:32.574Z,19.70
2019-05-30T10:59:36.946Z,19.60
2019-05-30T11:04:41.258Z,19.60
2019-05-30T11:09:59.306Z,19.50
2019-05-30T11:15:04.527Z,19.50
2019-05-30T11:20:09.461Z,19.40
2019-05-30T11:25:14.115Z,19.40
2019-05-30T11:30:18.756Z,19.40
2019-05-30T11:35:23.071Z,19.30
2019-05-30T11:40:27.618Z,19.30
2019-05-30T11:45:32.173Z,19.30
2019-05-30T11:50:36.613Z,19.20
2019-05-30T11:55:40.929Z,19.20
2019-05-30T12:00:45.237Z,19.20
2019-05-30T12:05:50.452Z,19.20
2019-05-30T12:10:55.038Z,19.20
2019-05-30T12:15:59.681Z,19.30
2019-05-30T12:21:04.143Z,19.30
2019-05-30T12:26:08.590Z,19.30
2019-05-30T12:31:12.978Z,19.40
2019-05-30T12:36:17.287Z,19.40
2019-05-30T12:41:21.665Z,19.70
2019-05-30T12:46:25.972Z,19.90
2019-05-30T12:51:30.437Z,20.10
2019-05-30T12:56:34.886Z,20.20
2019-05-30T13:01:39.211Z,20.30
2019-05-30T13:06:45.051Z,20.30
2019-05-30T13:11:49.422Z,20.40
2019-05-30T13:16:55.624Z,20.40
2019-05-30T13:22:01.247Z,20.40
2019-05-30T13:27:06.071Z,20.40
2019-05-30T13:32:10.447Z,20.40
2019-05-30T13:37:14.982Z,20.40
2019-05-30T13:42:21.084Z,20.40
2019-05-30T13:47:25.554Z,20.40
2019-05-30T13:52:29.927Z,20.40
2019-05-30T13:57:34.477Z,20.40
2019-05-30T14:02:38.940Z,20.50
2019-05-30T14:07:43.422Z,20.40
2019-05-30T14:12:47.809Z,20.50
2019-05-30T14:17:52.264Z,20.50
2019-05-30T14:22:56.744Z,20.50
2019-05-30T14:28:04.169Z,20.50
2019-05-30T14:33:08.534Z,20.50
2019-05-30T14:38:13.017Z,20.50
2019-05-30T14:43:17.451Z,20.60
2019-05-30T14:48:23.295Z,20.50
2019-05-30T14:53:27.601Z,20.50
2019-05-30T14:58:31.973Z,20.50
2019-05-30T15:03:37.907Z,20.50
2019-05-30T15:08:42.725Z,20.50
2019-05-30T15:13:47.105Z,20.50
2019-05-30T15:18:51.470Z,20.40
2019-05-30T15:23:55.914Z,20.40
2019-05-30T15:29:00.348Z,20.40
2019-05-30T15:34:04.961Z,20.30
2019-05-30T15:39:10.828Z,20.30
2019-05-30T15:44:15.787Z,20.30
2019-05-30T15:49:20.216Z,20.30
2019-05-30T15:54:24.528Z,20.30
2019-05-30T15:59:28.906Z,20.20
2019-05-30T16:04:33.443Z,20.20
2019-05-30T16:09:46.686Z,20.20
2019-05-30T16:14:45.383Z,20.20
2019-05-30T16:19:51.228Z,20.20
2019-05-30T16:24:55.609Z,20.20
2019-05-30T16:29:59.994Z,20.20
2019-05-30T16:35:05.502Z,20.20
2019-05-30T16:40:10.715Z,20.20
2019-05-30T16:45:20.220Z,20.20
2019-05-30T16:50:24.353Z,20.20
2019-05-30T16:55:28.729Z,20.30
2019-05-30T17:00:33.378Z,20.30
2019-05-30T17:05:38.044Z,20.20
2019-05-30T17:10:43.292Z,20.30
2019-05-30T17:15:47.600Z,20.30
2019-05-30T17:20:51.907Z,20.30
2019-05-30T17:25:56.211Z,20.40
2019-05-30T17:31:00.593Z,20.40
2019-05-30T17:36:05.366Z,20.50
2019-05-30T17:41:09.675Z,20.60
2019-05-30T17:46:13.989Z,20.70
2019-05-30T17:51:19.668Z,20.80
2019-05-30T17:56:24.081Z,20.90
2019-05-30T18:01:28.510Z,21.00
2019-05-30T18:06:34.303Z,21.00
2019-05-30T18:11:38.599Z,21.00
2019-05-30T18:16:42.907Z,21.00
2019-05-30T18:21:47.213Z,21.00
2019-05-30T18:26:51.526Z,21.00
2019-05-30T18:31:55.908Z,21.00
2019-05-30T18:37:00.203Z,21.00
2019-05-30T18:42:04.599Z,20.90
2019-05-30T18:47:08.910Z,20.90
2019-05-30T18:52:13.223Z,20.90
2019-05-30T18:57:17.592Z,20.90
2019-05-30T19:02:21.893Z,20.90
2019-05-30T19:07:26.704Z,20.80
2019-05-30T19:12:32.165Z,20.80
2019-05-30T19:17:36.572Z,20.80
2019-05-30T19:22:41.658Z,20.80
2019-05-30T19:27:45.979Z,20.80
2019-05-30T19:32:50.285Z,20.80
2019-05-30T19:37:54.790Z,20.80
2019-05-30T19:42:59.251Z,20.80
2019-05-30T19:48:03.563Z,20.70
2019-05-30T19:53:08.040Z,20.70
2019-05-30T19:58:12.339Z,20.70
2019-05-30T20:03:16.726Z,20.70
2019-05-30T20:08:21.092Z,20.70
2019-05-30T20:13:25.391Z,20.70
2019-05-30T20:18:29.770Z,20.60
2019-05-30T20:23:48.413Z,20.60
2019-05-30T20:28:40.857Z,20.60
2019-05-30T20:33:45.259Z,20.60
2019-05-30T20:38:49.728Z,20.60
2019-05-30T20:43:54.037Z,20.50
2019-05-30T20:48:58.348Z,20.50
2019-05-30T20:54:02.652Z,20.50
2019-05-30T20:59:10.020Z,20.40
2019-05-30T21:04:12.998Z,20.40
2019-05-30T21:09:28.403Z,20.50
2019-05-30T21:14:27.386Z,20.40
2019-05-30T21:19:30.236Z,20.40
2019-05-30T21:24:34.547Z,20.40
2019-05-30T21:29:38.964Z,20.40
2019-05-30T21:34:44.464Z,20.40
2019-05-30T21:39:49.519Z,20.40
2019-05-30T21:44:53.815Z,20.40
2019-05-30T21:49:58.110Z,20.30
2019-05-30T21:55:03.384Z,20.40
2019-05-30T22:00:12.130Z,20.40
2019-05-30T22:05:16.498Z,20.30
2019-05-30T22:10:20.799Z,20.30
2019-05-30T22:15:25.100Z,20.30
2019-05-30T22:20:29.401Z,20.30
2019-05-30T22:25:33.693Z,20.20
2019-05-30T22:30:38.059Z,20.20
2019-05-30T22:35:42.734Z,20.20
2019-05-30T22:40:47.890Z,20.20
2019-05-30T22:45:52.517Z,20.20
2019-05-30T22:50:57.078Z,20.20
2019-05-30T22:56:01.394Z,20.20
2019-05-30T23:01:05.707Z,20.20
2019-05-30T23:06:10.006Z,20.20
2019-05-30T23:11:15.939Z,20.20
2019-05-30T23:16:20.231Z,20.20
2019-05-30T23:21:24.683Z,20.20
2019-05-30T23:26:28.979Z,20.20
2019-05-30T23:31:33.289Z,20.20
2019-05-30T23:36:37.650Z,20.20
2019-05-30T23:41:42.028Z,20.20
2019-05-30T23:46:47.860Z,20.20
2019-05-30T23:51:52.167Z,20.20
2019-05-30T23:56:56.598Z,20.20
